Mounds View, Minnesota
Current Conditions -  °F | °C
As of 1:54 AM on Saturday 20 Dec 2014 (Local Time) from KANE Reporting Station
Overcast Overcast  
Wind Chill: -6°   Ceiling: 1200
Heat Index: -1°   Visibility: 7mi
Dew Point: -2°   Wind: 9mph
Humidity: 93%   Direction: 150°SSE
Pressure: 30.15"   Gusts: NA
Location:  45.0755°N, 93.1911°W
Report Text: KANE 200754Z AUTO 15008KT 7SM OVC012 M01/M02 A3015 RMK AO2
Loading
Personal Weather Stations






























Interactive Weather Map New forecast layout! Learn more

10-Day Weather Forecast

Advertisements
Track Severe Weather on mobile